This is the latest recevied weather packets stored in our database for station/object KB3KBR-WX. If no packets are shown the sender has not sent any weather packets the latest 10 day(s).
| Time | Temp. | Humidity | Pressure | Rain* | Wind** | Luminosity | Snow |
|---|---|---|---|---|---|---|---|
| 1778184992 | 12.78° C | 48% | 1006.8 hPa | 0 mm | - | - | - |
| 1778184661 | 12.78° C | 46% | 1006.8 hPa | 0 mm | - | - | - |
| 1778184361 | 13.33° C | 44% | 1006.6 hPa | 0 mm | - | - | - |
| 1778184031 | 13.33° C | 45% | 1006.7 hPa | 0 mm | - | - | - |
| 1778183732 | 13.33° C | 45% | 1006.7 hPa | 0 mm | - | - | - |
| 1778183401 | 13.33° C | 44% | 1006.8 hPa | 0 mm | - | - | - |
| 1778183102 | 13.33° C | 46% | 1006.8 hPa | 0 mm | - | - | - |
| 1778182771 | 13.89° C | 45% | 1006.8 hPa | 0 mm | - | - | - |
| 1778182442 | 13.33° C | 46% | 1006.9 hPa | 0 mm | - | - | - |
| 1778182112 | 13.33° C | 46% | 1006.9 hPa | 0 mm | - | - | - |
| 1778181781 | 13.33° C | 46% | 1006.9 hPa | 0 mm | - | - | - |
| 1778181452 | 13.33° C | 45% | 1006.9 hPa | 0 mm | - | - | - |
| 1778181152 | 13.89° C | 45% | 1007 hPa | 0 mm | - | - | - |
| 1778180852 | 13.89° C | 44% | 1007 hPa | 0 mm | - | - | - |
| 1778180191 | 13.89° C | 51% | 1007.3 hPa | 0 mm | - | - | - |
| 1778179891 | 13.33° C | 50% | 1007.3 hPa | 0 mm | - | - | - |
| 1778179562 | 12.78° C | 49% | 1007.5 hPa | 0 mm | - | - | - |
| 1778179261 | 12.78° C | 49% | 1007.5 hPa | 0 mm | - | - | - |
| 1778178931 | 12.78° C | 50% | 1007.5 hPa | 0 mm | - | - | - |
| 1778178631 | 12.78° C | 50% | 1007.5 hPa | 0 mm | - | - | - |
| 1778178303 | 12.78° C | 48% | 1007.4 hPa | 0 mm | - | - | - |
| 1778178001 | 13.33° C | 49% | 1007.4 hPa | 0 mm | - | - | - |
| 1778177672 | 13.33° C | 47% | 1007.4 hPa | 0 mm | - | - | - |
| 1778177341 | 13.89° C | 48% | 1007.4 hPa | 0 mm | - | - | - |
| 1778177012 | 13.89° C | 48% | 1007.4 hPa | 0 mm | - | - | - |
* Rain latest hour (hover to see other rain measurements)
** Current wind speed in m/s (hover to see current wind gust speed)